sensor_id;sensor_type;location;lat;lon;timestamp;P1;durP1;ratioP1;P2;durP2;ratioP2
48367;SDS011;34173;47.446;18.912;2023-06-10T09:08:51;4.40;;;3.03;;
48367;SDS011;34173;47.446;18.912;2023-06-10T09:11:19;6.05;;;3.55;;
48367;SDS011;34173;47.446;18.912;2023-06-10T09:13:46;5.35;;;3.50;;
48367;SDS011;34173;47.446;18.912;2023-06-10T09:16:14;6.05;;;3.60;;
48367;SDS011;34173;47.446;18.912;2023-06-10T09:18:42;6.62;;;3.90;;
48367;SDS011;34173;47.446;18.912;2023-06-10T10:53:08;13.48;;;12.02;;
48367;SDS011;34173;47.446;18.912;2023-06-10T10:55:36;14.38;;;12.02;;
48367;SDS011;34173;47.446;18.912;2023-06-10T10:58:04;14.75;;;12.15;;
48367;SDS011;34173;47.446;18.912;2023-06-10T11:00:33;13.98;;;11.88;;
48367;SDS011;34173;47.446;18.912;2023-06-10T11:08:07;11.27;;;9.95;;
48367;SDS011;34173;47.446;18.912;2023-06-10T11:13:08;10.93;;;9.73;;
48367;SDS011;34173;47.446;18.912;2023-06-10T11:15:46;10.10;;;8.93;;
48367;SDS011;34173;47.446;18.912;2023-06-10T11:18:24;10.77;;;9.68;;
48367;SDS011;34173;47.446;18.912;2023-06-10T11:20:53;10.80;;;9.60;;
48367;SDS011;34173;47.446;18.912;2023-06-10T11:23:30;11.90;;;8.82;;
48367;SDS011;34173;47.446;18.912;2023-06-10T11:26:19;9.77;;;7.12;;
48367;SDS011;34173;47.446;18.912;2023-06-10T11:36:22;12.18;;;8.98;;
48367;SDS011;34173;47.446;18.912;2023-06-10T11:38:55;9.00;;;7.72;;
48367;SDS011;34173;47.446;18.912;2023-06-10T11:41:24;9.80;;;8.13;;
48367;SDS011;34173;47.446;18.912;2023-06-10T11:43:53;9.10;;;7.68;;
48367;SDS011;34173;47.446;18.912;2023-06-10T11:46:24;9.00;;;7.75;;
48367;SDS011;34173;47.446;18.912;2023-06-10T11:48:56;9.07;;;7.68;;
48367;SDS011;34173;47.446;18.912;2023-06-10T11:51:25;8.30;;;7.40;;
48367;SDS011;34173;47.446;18.912;2023-06-10T11:53:54;7.87;;;7.07;;
48367;SDS011;34173;47.446;18.912;2023-06-10T11:56:23;8.30;;;7.40;;
48367;SDS011;34173;47.446;18.912;2023-06-10T11:58:54;8.70;;;7.80;;
48367;SDS011;34173;47.446;18.912;2023-06-10T12:01:25;9.10;;;7.72;;
48367;SDS011;34173;47.446;18.912;2023-06-10T12:04:06;8.07;;;7.10;;
48367;SDS011;34173;47.446;18.912;2023-06-10T12:12:00;8.85;;;7.95;;
48367;SDS011;34173;47.446;18.912;2023-06-10T12:20:03;8.95;;;7.15;;
48367;SDS011;34173;47.446;18.912;2023-06-10T12:22:42;9.02;;;7.68;;
48367;SDS011;34173;47.446;18.912;2023-06-10T12:25:11;9.43;;;8.23;;
48367;SDS011;34173;47.446;18.912;2023-06-10T12:27:40;9.85;;;7.55;;
48367;SDS011;34173;47.446;18.912;2023-06-10T12:30:08;9.55;;;7.90;;
48367;SDS011;34173;47.446;18.912;2023-06-10T12:35:05;10.02;;;7.65;;
48367;SDS011;34173;47.446;18.912;2023-06-10T12:37:34;8.60;;;7.70;;
48367;SDS011;34173;47.446;18.912;2023-06-10T12:40:04;9.18;;;8.07;;
48367;SDS011;34173;47.446;18.912;2023-06-10T12:42:36;10.70;;;9.10;;
48367;SDS011;34173;47.446;18.912;2023-06-10T12:45:05;10.77;;;9.60;;
48367;SDS011;34173;47.446;18.912;2023-06-10T12:47:36;9.65;;;8.63;;
48367;SDS011;34173;47.446;18.912;2023-06-10T12:50:06;9.95;;;8.85;;
48367;SDS011;34173;47.446;18.912;2023-06-10T12:52:35;8.35;;;7.35;;
48367;SDS011;34173;47.446;18.912;2023-06-10T12:55:02;8.90;;;8.00;;
48367;SDS011;34173;47.446;18.912;2023-06-10T12:57:31;8.48;;;7.68;;
48367;SDS011;34173;47.446;18.912;2023-06-10T12:59:59;10.10;;;7.70;;
48367;SDS011;34173;47.446;18.912;2023-06-10T13:02:33;9.05;;;7.93;;
48367;SDS011;34173;47.446;18.912;2023-06-10T13:05:00;7.22;;;6.50;;
48367;SDS011;34173;47.446;18.912;2023-06-10T13:07:30;7.00;;;6.30;;
48367;SDS011;34173;47.446;18.912;2023-06-10T13:09:58;7.90;;;5.93;;
48367;SDS011;34173;47.446;18.912;2023-06-10T13:12:25;9.23;;;5.97;;
48367;SDS011;34173;47.446;18.912;2023-06-10T13:15:13;6.93;;;5.43;;
48367;SDS011;34173;47.446;18.912;2023-06-10T13:17:44;6.68;;;4.15;;
48367;SDS011;34173;47.446;18.912;2023-06-10T13:20:17;4.97;;;4.00;;
48367;SDS011;34173;47.446;18.912;2023-06-10T13:22:46;6.40;;;4.22;;
48367;SDS011;34173;47.446;18.912;2023-06-10T13:25:14;4.03;;;3.10;;
48367;SDS011;34173;47.446;18.912;2023-06-10T13:27:43;5.50;;;3.73;;
48367;SDS011;34173;47.446;18.912;2023-06-10T13:30:10;5.60;;;3.70;;
48367;SDS011;34173;47.446;18.912;2023-06-10T13:32:38;4.97;;;3.80;;
48367;SDS011;34173;47.446;18.912;2023-06-10T13:35:07;4.65;;;3.47;;
48367;SDS011;34173;47.446;18.912;2023-06-10T13:37:35;5.40;;;3.60;;
48367;SDS011;34173;47.446;18.912;2023-06-10T13:40:04;4.82;;;3.47;;
48367;SDS011;34173;47.446;18.912;2023-06-10T13:42:32;4.90;;;3.70;;
48367;SDS011;34173;47.446;18.912;2023-06-10T13:45:00;5.20;;;3.80;;
48367;SDS011;34173;47.446;18.912;2023-06-10T13:47:28;6.70;;;3.70;;
48367;SDS011;34173;47.446;18.912;2023-06-10T13:49:55;6.22;;;3.58;;
48367;SDS011;34173;47.446;18.912;2023-06-10T13:52:23;4.47;;;3.50;;
48367;SDS011;34173;47.446;18.912;2023-06-10T13:54:53;5.97;;;3.47;;
48367;SDS011;34173;47.446;18.912;2023-06-10T13:57:27;3.97;;;2.87;;
48367;SDS011;34173;47.446;18.912;2023-06-10T13:59:54;4.93;;;2.92;;
48367;SDS011;34173;47.446;18.912;2023-06-10T14:02:26;3.97;;;3.00;;
48367;SDS011;34173;47.446;18.912;2023-06-10T14:04:54;6.62;;;3.28;;
48367;SDS011;34173;47.446;18.912;2023-06-10T14:07:21;4.28;;;3.08;;
48367;SDS011;34173;47.446;18.912;2023-06-10T14:09:49;5.10;;;3.00;;
48367;SDS011;34173;47.446;18.912;2023-06-10T14:12:17;4.60;;;3.30;;
48367;SDS011;34173;47.446;18.912;2023-06-10T14:14:44;5.18;;;3.70;;
48367;SDS011;34173;47.446;18.912;2023-06-10T14:17:12;7.65;;;4.57;;
48367;SDS011;34173;47.446;18.912;2023-06-10T14:19:39;6.30;;;4.75;;
48367;SDS011;34173;47.446;18.912;2023-06-10T14:22:07;5.95;;;4.47;;
48367;SDS011;34173;47.446;18.912;2023-06-10T14:24:36;5.90;;;4.70;;
48367;SDS011;34173;47.446;18.912;2023-06-10T14:27:05;7.27;;;4.90;;
48367;SDS011;34173;47.446;18.912;2023-06-10T14:29:33;6.55;;;5.07;;
48367;SDS011;34173;47.446;18.912;2023-06-10T14:32:01;8.52;;;5.55;;
48367;SDS011;34173;47.446;18.912;2023-06-10T14:34:31;6.30;;;4.90;;
48367;SDS011;34173;47.446;18.912;2023-06-10T14:37:00;6.55;;;4.87;;
48367;SDS011;34173;47.446;18.912;2023-06-10T14:39:30;7.60;;;4.22;;
48367;SDS011;34173;47.446;18.912;2023-06-10T14:41:58;5.97;;;4.20;;
48367;SDS011;34173;47.446;18.912;2023-06-10T14:44:26;5.70;;;3.90;;
48367;SDS011;34173;47.446;18.912;2023-06-10T14:46:53;5.45;;;3.83;;
48367;SDS011;34173;47.446;18.912;2023-06-10T14:49:21;5.55;;;3.60;;
48367;SDS011;34173;47.446;18.912;2023-06-10T14:51:49;5.15;;;3.37;;
48367;SDS011;34173;47.446;18.912;2023-06-10T14:54:17;5.18;;;3.55;;
48367;SDS011;34173;47.446;18.912;2023-06-10T14:56:45;5.60;;;3.57;;
48367;SDS011;34173;47.446;18.912;2023-06-10T14:59:12;5.72;;;3.85;;
48367;SDS011;34173;47.446;18.912;2023-06-10T15:01:40;7.37;;;3.97;;
48367;SDS011;34173;47.446;18.912;2023-06-10T15:04:08;5.12;;;3.55;;
48367;SDS011;34173;47.446;18.912;2023-06-10T15:06:36;10.90;;;4.20;;
48367;SDS011;34173;47.446;18.912;2023-06-10T15:09:03;5.97;;;3.45;;
48367;SDS011;34173;47.446;18.912;2023-06-10T15:11:31;6.20;;;3.60;;
48367;SDS011;34173;47.446;18.912;2023-06-10T15:13:58;5.97;;;3.40;;
48367;SDS011;34173;47.446;18.912;2023-06-10T15:16:26;5.50;;;3.57;;
48367;SDS011;34173;47.446;18.912;2023-06-10T15:18:54;5.30;;;3.20;;
48367;SDS011;34173;47.446;18.912;2023-06-10T15:21:25;4.85;;;3.22;;
48367;SDS011;34173;47.446;18.912;2023-06-10T15:23:52;5.62;;;3.03;;
48367;SDS011;34173;47.446;18.912;2023-06-10T15:26:20;5.30;;;3.08;;
48367;SDS011;34173;47.446;18.912;2023-06-10T15:28:48;5.28;;;3.12;;
48367;SDS011;34173;47.446;18.912;2023-06-10T15:31:23;4.32;;;2.75;;
48367;SDS011;34173;47.446;18.912;2023-06-10T15:33:53;4.77;;;3.00;;
48367;SDS011;34173;47.446;18.912;2023-06-10T15:36:20;5.00;;;2.80;;
48367;SDS011;34173;47.446;18.912;2023-06-10T15:39:03;4.22;;;2.75;;
48367;SDS011;34173;47.446;18.912;2023-06-10T15:41:34;4.72;;;2.90;;
48367;SDS011;34173;47.446;18.912;2023-06-10T15:44:02;4.40;;;2.83;;
48367;SDS011;34173;47.446;18.912;2023-06-10T15:46:43;5.47;;;3.17;;
48367;SDS011;34173;47.446;18.912;2023-06-10T15:49:16;4.70;;;3.03;;
48367;SDS011;34173;47.446;18.912;2023-06-10T15:51:43;5.47;;;3.25;;
48367;SDS011;34173;47.446;18.912;2023-06-10T15:54:17;4.28;;;3.12;;
48367;SDS011;34173;47.446;18.912;2023-06-10T15:56:46;6.70;;;3.33;;
48367;SDS011;34173;47.446;18.912;2023-06-10T15:59:18;5.43;;;3.25;;
48367;SDS011;34173;47.446;18.912;2023-06-10T16:01:45;5.50;;;3.00;;
48367;SDS011;34173;47.446;18.912;2023-06-10T16:04:15;5.05;;;3.33;;
48367;SDS011;34173;47.446;18.912;2023-06-10T16:07:03;5.35;;;3.30;;
48367;SDS011;34173;47.446;18.912;2023-06-10T16:09:31;5.87;;;3.10;;
48367;SDS011;34173;47.446;18.912;2023-06-10T16:11:58;5.05;;;3.10;;
48367;SDS011;34173;47.446;18.912;2023-06-10T16:14:25;5.87;;;3.55;;
48367;SDS011;34173;47.446;18.912;2023-06-10T16:16:53;7.30;;;3.55;;
48367;SDS011;34173;47.446;18.912;2023-06-10T16:19:24;5.32;;;3.45;;
48367;SDS011;34173;47.446;18.912;2023-06-10T16:21:52;5.87;;;3.20;;
48367;SDS011;34173;47.446;18.912;2023-06-10T16:24:20;6.00;;;3.37;;
48367;SDS011;34173;47.446;18.912;2023-06-10T16:26:48;4.85;;;3.10;;
48367;SDS011;34173;47.446;18.912;2023-06-10T16:29:15;6.10;;;3.20;;
48367;SDS011;34173;47.446;18.912;2023-06-10T16:31:43;5.75;;;3.10;;
48367;SDS011;34173;47.446;18.912;2023-06-10T16:34:11;5.25;;;3.08;;
48367;SDS011;34173;47.446;18.912;2023-06-10T16:36:41;4.87;;;3.20;;
48367;SDS011;34173;47.446;18.912;2023-06-10T16:39:15;5.65;;;3.35;;
48367;SDS011;34173;47.446;18.912;2023-06-10T16:42:16;5.75;;;3.17;;
48367;SDS011;34173;47.446;18.912;2023-06-10T16:44:46;5.20;;;3.22;;
48367;SDS011;34173;47.446;18.912;2023-06-10T16:47:15;5.40;;;3.53;;
48367;SDS011;34173;47.446;18.912;2023-06-10T16:49:43;5.07;;;3.10;;
48367;SDS011;34173;47.446;18.912;2023-06-10T16:52:15;5.53;;;3.30;;
48367;SDS011;34173;47.446;18.912;2023-06-10T16:54:44;5.43;;;3.60;;
48367;SDS011;34173;47.446;18.912;2023-06-10T16:57:13;5.18;;;3.35;;
48367;SDS011;34173;47.446;18.912;2023-06-10T16:59:41;4.80;;;3.42;;
48367;SDS011;34173;47.446;18.912;2023-06-10T17:02:11;6.10;;;3.40;;
48367;SDS011;34173;47.446;18.912;2023-06-10T17:04:38;7.03;;;3.70;;
48367;SDS011;34173;47.446;18.912;2023-06-10T17:07:06;5.70;;;3.47;;
48367;SDS011;34173;47.446;18.912;2023-06-10T17:09:34;5.37;;;3.53;;
48367;SDS011;34173;47.446;18.912;2023-06-10T17:12:02;6.60;;;3.63;;
48367;SDS011;34173;47.446;18.912;2023-06-10T17:14:31;5.10;;;3.50;;
48367;SDS011;34173;47.446;18.912;2023-06-10T17:17:02;5.00;;;3.55;;
48367;SDS011;34173;47.446;18.912;2023-06-10T17:19:30;5.03;;;3.83;;
48367;SDS011;34173;47.446;18.912;2023-06-10T17:21:58;7.82;;;3.90;;
48367;SDS011;34173;47.446;18.912;2023-06-10T17:24:30;6.15;;;4.00;;
48367;SDS011;34173;47.446;18.912;2023-06-10T17:27:07;5.20;;;3.90;;
48367;SDS011;34173;47.446;18.912;2023-06-10T17:29:34;5.78;;;4.00;;
48367;SDS011;34173;47.446;18.912;2023-06-10T17:32:02;7.40;;;4.00;;
48367;SDS011;34173;47.446;18.912;2023-06-10T17:34:30;5.95;;;4.15;;
48367;SDS011;34173;47.446;18.912;2023-06-10T17:36:58;5.97;;;3.90;;
48367;SDS011;34173;47.446;18.912;2023-06-10T17:39:25;5.75;;;4.15;;
48367;SDS011;34173;47.446;18.912;2023-06-10T17:41:53;6.72;;;3.90;;
48367;SDS011;34173;47.446;18.912;2023-06-10T17:44:21;6.87;;;4.00;;
48367;SDS011;34173;47.446;18.912;2023-06-10T17:46:51;6.78;;;3.87;;
48367;SDS011;34173;47.446;18.912;2023-06-10T17:49:20;5.95;;;3.87;;
48367;SDS011;34173;47.446;18.912;2023-06-10T17:51:58;7.47;;;3.90;;
48367;SDS011;34173;47.446;18.912;2023-06-10T17:54:26;5.55;;;3.78;;
48367;SDS011;34173;47.446;18.912;2023-06-10T17:56:53;5.68;;;4.00;;
48367;SDS011;34173;47.446;18.912;2023-06-10T17:59:21;6.12;;;3.70;;
48367;SDS011;34173;47.446;18.912;2023-06-10T18:01:49;5.60;;;3.70;;
48367;SDS011;34173;47.446;18.912;2023-06-10T18:04:17;6.50;;;3.50;;
48367;SDS011;34173;47.446;18.912;2023-06-10T18:06:44;5.40;;;3.85;;
48367;SDS011;34173;47.446;18.912;2023-06-10T18:09:12;5.95;;;3.60;;
48367;SDS011;34173;47.446;18.912;2023-06-10T18:11:41;6.65;;;3.70;;
48367;SDS011;34173;47.446;18.912;2023-06-10T18:14:09;5.70;;;3.50;;
48367;SDS011;34173;47.446;18.912;2023-06-10T18:16:37;7.50;;;3.40;;
48367;SDS011;34173;47.446;18.912;2023-06-10T18:19:05;5.25;;;3.42;;
48367;SDS011;34173;47.446;18.912;2023-06-10T18:21:32;5.90;;;3.70;;
48367;SDS011;34173;47.446;18.912;2023-06-10T18:24:00;6.00;;;3.60;;
48367;SDS011;34173;47.446;18.912;2023-06-10T18:26:28;6.30;;;3.92;;
48367;SDS011;34173;47.446;18.912;2023-06-10T18:28:56;5.45;;;3.70;;
48367;SDS011;34173;47.446;18.912;2023-06-10T18:31:23;6.15;;;3.85;;
48367;SDS011;34173;47.446;18.912;2023-06-10T18:33:51;6.40;;;3.60;;
48367;SDS011;34173;47.446;18.912;2023-06-10T18:36:19;5.90;;;3.70;;
48367;SDS011;34173;47.446;18.912;2023-06-10T18:38:46;5.85;;;3.60;;
48367;SDS011;34173;47.446;18.912;2023-06-10T18:41:14;5.85;;;3.70;;
48367;SDS011;34173;47.446;18.912;2023-06-10T18:43:43;5.82;;;3.67;;
48367;SDS011;34173;47.446;18.912;2023-06-10T18:46:10;5.32;;;4.00;;
48367;SDS011;34173;47.446;18.912;2023-06-10T18:48:38;5.70;;;4.10;;
48367;SDS011;34173;47.446;18.912;2023-06-10T18:51:08;6.70;;;3.90;;
48367;SDS011;34173;47.446;18.912;2023-06-10T18:53:36;9.20;;;4.05;;
48367;SDS011;34173;47.446;18.912;2023-06-10T18:56:04;7.37;;;4.62;;
48367;SDS011;34173;47.446;18.912;2023-06-10T18:58:31;7.68;;;4.25;;
48367;SDS011;34173;47.446;18.912;2023-06-10T19:01:02;6.60;;;4.37;;
48367;SDS011;34173;47.446;18.912;2023-06-10T19:03:31;7.40;;;4.10;;
48367;SDS011;34173;47.446;18.912;2023-06-10T19:05:59;5.57;;;4.00;;
48367;SDS011;34173;47.446;18.912;2023-06-10T19:08:27;6.32;;;4.10;;
48367;SDS011;34173;47.446;18.912;2023-06-10T19:10:55;5.72;;;4.20;;
48367;SDS011;34173;47.446;18.912;2023-06-10T19:13:23;9.00;;;4.57;;
48367;SDS011;34173;47.446;18.912;2023-06-10T19:15:51;6.50;;;4.23;;
48367;SDS011;34173;47.446;18.912;2023-06-10T19:18:19;6.10;;;4.50;;
48367;SDS011;34173;47.446;18.912;2023-06-10T19:20:47;7.00;;;4.33;;
48367;SDS011;34173;47.446;18.912;2023-06-10T19:23:14;6.20;;;4.20;;
48367;SDS011;34173;47.446;18.912;2023-06-10T19:25:42;7.97;;;4.82;;
48367;SDS011;34173;47.446;18.912;2023-06-10T19:28:10;6.75;;;4.60;;
48367;SDS011;34173;47.446;18.912;2023-06-10T19:30:37;6.05;;;4.30;;
48367;SDS011;34173;47.446;18.912;2023-06-10T19:33:05;7.72;;;4.50;;
48367;SDS011;34173;47.446;18.912;2023-06-10T19:35:37;6.70;;;4.72;;
48367;SDS011;34173;47.446;18.912;2023-06-10T19:38:05;8.32;;;4.97;;
48367;SDS011;34173;47.446;18.912;2023-06-10T19:40:33;9.10;;;5.47;;
48367;SDS011;34173;47.446;18.912;2023-06-10T19:43:00;9.88;;;6.70;;
48367;SDS011;34173;47.446;18.912;2023-06-10T19:45:29;8.55;;;6.22;;
48367;SDS011;34173;47.446;18.912;2023-06-10T19:47:56;8.68;;;5.12;;
48367;SDS011;34173;47.446;18.912;2023-06-10T19:50:24;7.45;;;5.40;;
48367;SDS011;34173;47.446;18.912;2023-06-10T19:52:53;7.70;;;5.30;;
48367;SDS011;34173;47.446;18.912;2023-06-10T19:55:20;8.57;;;5.65;;
48367;SDS011;34173;47.446;18.912;2023-06-10T19:57:48;9.15;;;5.55;;
48367;SDS011;34173;47.446;18.912;2023-06-10T20:00:16;7.97;;;5.20;;
48367;SDS011;34173;47.446;18.912;2023-06-10T20:02:43;7.70;;;5.55;;
48367;SDS011;34173;47.446;18.912;2023-06-10T20:05:11;7.40;;;5.33;;
48367;SDS011;34173;47.446;18.912;2023-06-10T20:07:39;7.90;;;5.57;;
48367;SDS011;34173;47.446;18.912;2023-06-10T20:10:07;9.23;;;5.07;;
48367;SDS011;34173;47.446;18.912;2023-06-10T20:12:35;7.60;;;4.87;;
48367;SDS011;34173;47.446;18.912;2023-06-10T20:15:03;7.78;;;5.53;;
48367;SDS011;34173;47.446;18.912;2023-06-10T20:17:31;10.93;;;5.50;;
48367;SDS011;34173;47.446;18.912;2023-06-10T20:19:58;8.60;;;5.18;;
48367;SDS011;34173;47.446;18.912;2023-06-10T20:22:26;6.72;;;4.85;;
48367;SDS011;34173;47.446;18.912;2023-06-10T20:24:53;7.00;;;5.03;;
48367;SDS011;34173;47.446;18.912;2023-06-10T20:27:21;7.40;;;5.00;;
48367;SDS011;34173;47.446;18.912;2023-06-10T20:29:48;7.00;;;4.70;;
48367;SDS011;34173;47.446;18.912;2023-06-10T20:32:16;7.53;;;4.90;;
48367;SDS011;34173;47.446;18.912;2023-06-10T20:34:45;7.90;;;4.95;;
48367;SDS011;34173;47.446;18.912;2023-06-10T20:37:15;8.37;;;4.83;;
48367;SDS011;34173;47.446;18.912;2023-06-10T20:39:43;8.33;;;5.30;;
48367;SDS011;34173;47.446;18.912;2023-06-10T20:42:11;9.68;;;4.95;;
48367;SDS011;34173;47.446;18.912;2023-06-10T20:44:43;7.80;;;5.22;;
48367;SDS011;34173;47.446;18.912;2023-06-10T20:47:10;7.20;;;5.20;;
48367;SDS011;34173;47.446;18.912;2023-06-10T20:49:38;7.75;;;5.12;;
48367;SDS011;34173;47.446;18.912;2023-06-10T20:52:06;7.53;;;5.00;;
48367;SDS011;34173;47.446;18.912;2023-06-10T20:54:33;7.22;;;4.90;;
48367;SDS011;34173;47.446;18.912;2023-06-10T20:57:01;6.93;;;4.87;;
48367;SDS011;34173;47.446;18.912;2023-06-10T20:59:29;8.90;;;5.00;;
48367;SDS011;34173;47.446;18.912;2023-06-10T21:01:56;7.30;;;5.03;;
48367;SDS011;34173;47.446;18.912;2023-06-10T21:04:24;7.70;;;4.70;;
48367;SDS011;34173;47.446;18.912;2023-06-10T21:06:52;7.57;;;5.20;;
48367;SDS011;34173;47.446;18.912;2023-06-10T21:09:19;8.03;;;4.70;;
48367;SDS011;34173;47.446;18.912;2023-06-10T21:11:46;6.62;;;4.85;;
48367;SDS011;34173;47.446;18.912;2023-06-10T21:14:14;7.50;;;4.70;;
48367;SDS011;34173;47.446;18.912;2023-06-10T21:16:42;6.55;;;4.85;;
48367;SDS011;34173;47.446;18.912;2023-06-10T21:19:09;6.68;;;4.57;;
48367;SDS011;34173;47.446;18.912;2023-06-10T21:21:37;6.78;;;4.60;;
48367;SDS011;34173;47.446;18.912;2023-06-10T21:24:04;6.60;;;4.97;;
48367;SDS011;34173;47.446;18.912;2023-06-10T21:26:34;7.20;;;4.82;;
48367;SDS011;34173;47.446;18.912;2023-06-10T21:29:06;7.45;;;4.93;;
48367;SDS011;34173;47.446;18.912;2023-06-10T21:31:33;7.07;;;4.82;;
48367;SDS011;34173;47.446;18.912;2023-06-10T21:34:01;7.62;;;5.47;;
48367;SDS011;34173;47.446;18.912;2023-06-10T21:36:29;8.07;;;5.37;;
48367;SDS011;34173;47.446;18.912;2023-06-10T21:38:57;7.07;;;4.95;;
48367;SDS011;34173;47.446;18.912;2023-06-10T21:41:25;8.38;;;5.45;;
48367;SDS011;34173;47.446;18.912;2023-06-10T21:43:56;8.45;;;5.55;;
48367;SDS011;34173;47.446;18.912;2023-06-10T21:46:24;8.80;;;5.35;;
48367;SDS011;34173;47.446;18.912;2023-06-10T21:48:53;7.68;;;5.50;;
48367;SDS011;34173;47.446;18.912;2023-06-10T21:51:21;8.00;;;5.70;;
48367;SDS011;34173;47.446;18.912;2023-06-10T21:53:48;9.25;;;5.97;;
48367;SDS011;34173;47.446;18.912;2023-06-10T21:56:15;8.23;;;6.37;;
48367;SDS011;34173;47.446;18.912;2023-06-10T21:58:45;8.38;;;6.30;;
48367;SDS011;34173;47.446;18.912;2023-06-10T22:01:15;9.00;;;6.18;;
48367;SDS011;34173;47.446;18.912;2023-06-10T22:03:43;8.75;;;6.20;;
48367;SDS011;34173;47.446;18.912;2023-06-10T22:06:11;9.23;;;6.45;;
48367;SDS011;34173;47.446;18.912;2023-06-10T22:08:38;8.15;;;6.87;;
48367;SDS011;34173;47.446;18.912;2023-06-10T22:11:06;8.40;;;6.20;;
48367;SDS011;34173;47.446;18.912;2023-06-10T22:13:34;10.02;;;6.53;;
48367;SDS011;34173;47.446;18.912;2023-06-10T22:16:01;9.20;;;6.10;;
48367;SDS011;34173;47.446;18.912;2023-06-10T22:18:29;9.52;;;6.60;;
48367;SDS011;34173;47.446;18.912;2023-06-10T22:20:57;9.52;;;6.50;;
48367;SDS011;34173;47.446;18.912;2023-06-10T22:23:24;8.75;;;6.68;;
48367;SDS011;34173;47.446;18.912;2023-06-10T22:25:52;8.27;;;6.40;;
48367;SDS011;34173;47.446;18.912;2023-06-10T22:28:19;8.00;;;6.75;;
48367;SDS011;34173;47.446;18.912;2023-06-10T22:30:47;9.18;;;6.70;;
48367;SDS011;34173;47.446;18.912;2023-06-10T22:33:15;10.13;;;6.93;;
48367;SDS011;34173;47.446;18.912;2023-06-10T22:35:42;7.80;;;6.20;;
48367;SDS011;34173;47.446;18.912;2023-06-10T22:38:09;8.45;;;6.40;;
48367;SDS011;34173;47.446;18.912;2023-06-10T22:40:37;10.00;;;6.53;;
48367;SDS011;34173;47.446;18.912;2023-06-10T22:43:05;9.63;;;6.50;;
48367;SDS011;34173;47.446;18.912;2023-06-10T22:45:32;8.68;;;6.65;;
48367;SDS011;34173;47.446;18.912;2023-06-10T22:48:00;9.63;;;6.50;;
48367;SDS011;34173;47.446;18.912;2023-06-10T22:50:28;9.65;;;6.75;;
48367;SDS011;34173;47.446;18.912;2023-06-10T22:52:55;8.15;;;6.32;;
48367;SDS011;34173;47.446;18.912;2023-06-10T22:55:23;12.37;;;7.12;;
48367;SDS011;34173;47.446;18.912;2023-06-10T22:57:50;10.45;;;6.82;;
48367;SDS011;34173;47.446;18.912;2023-06-10T23:00:18;9.13;;;6.70;;
48367;SDS011;34173;47.446;18.912;2023-06-10T23:02:45;9.68;;;6.90;;
48367;SDS011;34173;47.446;18.912;2023-06-10T23:05:13;11.32;;;6.87;;
48367;SDS011;34173;47.446;18.912;2023-06-10T23:07:40;9.07;;;6.77;;
48367;SDS011;34173;47.446;18.912;2023-06-10T23:10:08;10.30;;;7.20;;
48367;SDS011;34173;47.446;18.912;2023-06-10T23:12:36;10.25;;;7.37;;
48367;SDS011;34173;47.446;18.912;2023-06-10T23:15:04;9.93;;;7.50;;
48367;SDS011;34173;47.446;18.912;2023-06-10T23:17:33;9.63;;;7.37;;
48367;SDS011;34173;47.446;18.912;2023-06-10T23:20:02;9.53;;;7.90;;
48367;SDS011;34173;47.446;18.912;2023-06-10T23:22:29;11.12;;;8.20;;
48367;SDS011;34173;47.446;18.912;2023-06-10T23:24:58;9.00;;;7.90;;
48367;SDS011;34173;47.446;18.912;2023-06-10T23:27:28;10.32;;;8.15;;
48367;SDS011;34173;47.446;18.912;2023-06-10T23:29:55;9.85;;;8.10;;
48367;SDS011;34173;47.446;18.912;2023-06-10T23:32:26;11.55;;;8.90;;
48367;SDS011;34173;47.446;18.912;2023-06-10T23:34:54;9.30;;;8.30;;
48367;SDS011;34173;47.446;18.912;2023-06-10T23:37:22;11.48;;;9.13;;
48367;SDS011;34173;47.446;18.912;2023-06-10T23:39:49;10.80;;;8.60;;
48367;SDS011;34173;47.446;18.912;2023-06-10T23:42:17;11.07;;;9.10;;
48367;SDS011;34173;47.446;18.912;2023-06-10T23:44:45;10.95;;;9.10;;
48367;SDS011;34173;47.446;18.912;2023-06-10T23:47:12;12.20;;;9.57;;
48367;SDS011;34173;47.446;18.912;2023-06-10T23:49:40;10.98;;;8.88;;
48367;SDS011;34173;47.446;18.912;2023-06-10T23:52:08;10.40;;;9.27;;
48367;SDS011;34173;47.446;18.912;2023-06-10T23:54:35;11.52;;;9.70;;
48367;SDS011;34173;47.446;18.912;2023-06-10T23:57:04;10.35;;;9.20;;
48367;SDS011;34173;47.446;18.912;2023-06-10T23:59:32;13.75;;;9.88;;
